Coastal Inspiration — CFN4970 — position and weather

sailwx.info

Track history (hours):
 
Tides and Currents Weather Stations Pressure Air Temp Water Temp Dewpoint Dewpoint Depression Visibility Wind Speed Wind Dir Waves Ship Positions

Coastal Inspiration

Last reported at 2016-May-02 03:33 UTC. Time now 2016-May-02 03:44 UTC.
Position N 49°12' W 123°52'.

Length 160 m; draft 6 m.

Type: Passenger vessel. MMSI: 316011408.

Date/timePositionNaut miles runAvg speedWind from/ knotsBaromVisibWave heightAir tempDewpointWater temp
2016-May-02 03:33N 49°12' W 123°52'0 0.4
2016-May-02 02:33N 49°12' W 123°53'1817.8
2016-May-02 01:33N 49°07' W 123°27'1414.0
2016-May-02 00:33N 49°00' W 123°08'10 9.9
2016-May-01 23:34N 49°03' W 123°23'2120.5
2016-May-01 22:33N 49°13' W 123°50'2 2.3
2016-May-01 21:33N 49°12' W 123°53'1818.1
2016-May-01 20:33N 49°06' W 123°27'1413.9
2016-May-01 19:33N 49°00' W 123°08'1211.6
2016-May-01 18:33N 49°04' W 123°25'1918.8
2016-May-01 17:33N 49°13' W 123°50'4 3.4
2016-May-01 16:25N 49°10' W 123°53'0 0.0
2016-May-01 15:31N 49°10' W 123°53'0 0.0
2016-May-01 14:31N 49°10' W 123°53'0 0.0
2016-May-01 13:33N 49°10' W 123°53'0 0.0
2016-May-01 12:30N 49°10' W 123°53'0 0.0
2016-May-01 11:20N 49°10' W 123°53'0 0.0
2016-May-01 10:29N 49°10' W 123°53'0 0.0
2016-May-01 09:31N 49°10' W 123°53'0 0.0
2016-May-01 08:19N 49°10' W 123°53'0 0.0
2016-May-01 07:12N 49°10' W 123°53'0 0.0
2016-May-01 06:25N 49°10' W 123°53'0 0.0
2016-May-01 05:33N 49°10' W 123°53'0 0.0
2016-May-01 04:32N 49°10' W 123°53'0 0.0
2016-May-01 03:29N 49°10' W 123°53'3 3.7
2016-May-01 02:33N 49°13' W 123°51'1818.0
2016-May-01 01:33N 49°06' W 123°26'1312.8
2016-May-01 00:33N 49°00' W 123°08'1212.3
2016-Apr-30 23:33N 49°04' W 123°26'1817.8
2016-Apr-30 22:33N 49°13' W 123°49'3 2.7
2016-Apr-30 21:33N 49°12' W 123°53'1818.2
2016-Apr-30 20:33N 49°07' W 123°27'1413.8
2016-Apr-30 19:34N 49°00' W 123°08'1211.6
2016-Apr-30 18:33N 49°04' W 123°25'1818.3
2016-Apr-30 17:34N 49°13' W 123°49'2 1.9
2016-Apr-30 16:33N 49°13' W 123°52'1817.5
2016-Apr-30 15:33N 49°06' W 123°27'1413.6
2016-Apr-30 14:33N 49°00' W 123°08'1312.8
2016-Apr-30 13:34N 49°04' W 123°26'1717.5
2016-Apr-30 12:34N 49°13' W 123°50'4 3.8
2016-Apr-30 11:30N 49°10' W 123°53'0 0.0
2016-Apr-30 10:32N 49°10' W 123°53'0 0.0
2016-Apr-30 09:29N 49°10' W 123°53'0 0.0
2016-Apr-30 08:31N 49°10' W 123°53'4 3.8
2016-Apr-30 07:34N 49°13' W 123°50'1919.0
2016-Apr-30 06:33N 49°05' W 123°24'1111.4
2016-Apr-30 05:33N 49°00' W 123°08'1413.7
2016-Apr-30 04:33N 49°05' W 123°28'1817.7
2016-Apr-30 03:33N 49°11' W 123°53'5 5.2
2016-Apr-30 02:34N 49°13' W 123°46'2019.8
2016-Apr-30 01:34N 49°03' W 123°20'8 8.1
2016-Apr-30 00:33N 49°00' W 123°08'1717.3
2016-Apr-29 23:33N 49°07' W 123°32'1414.1
2016-Apr-29 22:33N 49°10' W 123°53'6 5.6
2016-Apr-29 21:33N 49°13' W 123°46'1918.9
2016-Apr-29 20:34N 49°04' W 123°21'9 9.3
2016-Apr-29 19:33N 49°00' W 123°08'1212.3
2016-Apr-29 18:34N 49°04' W 123°26'1919.1
2016-Apr-29 17:33N 49°13' W 123°52'1 0.5
2016-Apr-29 16:34N 49°13' W 123°52'1817.8
2016-Apr-29 15:33N 49°06' W 123°26'1313.3
2016-Apr-29 14:34N 49°00' W 123°08'1212.0
2016-Apr-29 13:33N 49°03' W 123°26'1818.2
2016-Apr-29 12:33N 49°13' W 123°49'30 4.3
2016-Apr-29 05:33N 49°00' W 123°08'1111.1
2016-Apr-29 04:33N 49°03' W 123°24'1919.1
2016-Apr-29 03:33N 49°13' W 123°49'2 1.7
2016-Apr-29 02:34N 49°13' W 123°52'1918.9
2016-Apr-29 01:34N 49°06' W 123°25'1212.3
2016-Apr-29 00:33N 49°00' W 123°08'1414.1
2016-Apr-28 23:33N 49°05' W 123°28'1817.6
2016-Apr-28 22:33N 49°12' W 123°53'0 0.5
2016-Apr-28 21:33N 49°12' W 123°53'1818.3
2016-Apr-28 20:34N 49°06' W 123°26'1313.4
2016-Apr-28 19:34N 49°00' W 123°08'1212.4
2016-Apr-28 18:33N 49°04' W 123°26'1918.7
2016-Apr-28 17:33N 49°12' W 123°52'0 0.3
2016-Apr-28 16:33N 49°13' W 123°51'1818.0
2016-Apr-28 15:33N 49°06' W 123°26'1313.0
2016-Apr-28 14:33N 49°00' W 123°08'1212.2
2016-Apr-28 13:33N 49°04' W 123°26'1818.0
2016-Apr-28 12:33N 49°13' W 123°49'5 4.4
2016-Apr-28 11:29N 49°10' W 123°53'0 0.0
2016-Apr-28 10:32N 49°10' W 123°53'0 0.0
2016-Apr-28 09:28N 49°10' W 123°53'0 0.0
2016-Apr-28 08:31N 49°10' W 123°53'0 0.4
2016-Apr-28 07:33N 49°10' W 123°53'1716.9
2016-Apr-28 06:33N 49°07' W 123°28'1514.7
2016-Apr-28 05:33N 49°00' W 123°08'1211.9
2016-Apr-28 04:33N 49°03' W 123°25'1919.1
2016-Apr-28 03:34N 49°13' W 123°51'1 0.5
2016-Apr-28 02:33N 49°13' W 123°50'2019.6
2016-Apr-28 01:33N 49°05' W 123°23'1110.8
2016-Apr-28 00:33N 49°00' W 123°08'1313.0
2016-Apr-27 23:33N 49°04' W 123°27'1818.5
2016-Apr-27 22:34N 49°12' W 123°52'0 0.4
2016-Apr-27 21:34N 49°12' W 123°53'1918.8
2016-Apr-27 20:33N 49°06' W 123°26'1312.9
2016-Apr-27 19:34N 49°00' W 123°08'1211.9
2016-Apr-27 18:33N 49°04' W 123°25'1918.8
2016-Apr-27 17:33N 49°13' W 123°50'0 0.4
2016-Apr-27 16:33N 49°13' W 123°50'1919.2
2016-Apr-27 15:34N 49°05' W 123°23'1110.9
2016-Apr-27 14:33N 49°00' W 123°08'1313.3
2016-Apr-27 13:33N 49°04' W 123°27'1818.3
2016-Apr-27 12:34N 49°12' W 123°52'3 2.7
2016-Apr-27 11:32N 49°10' W 123°53'0 0.0
2016-Apr-27 10:32N 49°10' W 123°53'0 0.0
2016-Apr-27 09:32N 49°10' W 123°53'0 0.0
2016-Apr-27 08:31N 49°10' W 123°53'1 0.6
2016-Apr-27 07:33N 49°10' W 123°53'1717.1
2016-Apr-27 06:33N 49°07' W 123°28'1514.6
2016-Apr-27 05:33N 49°00' W 123°08'1111.0
2016-Apr-27 04:34N 49°04' W 123°24'1918.9
2016-Apr-27 03:33N 49°13' W 123°49'3 3.2
2016-Apr-27 02:33N 49°11' W 123°53'1717.5
2016-Apr-27 01:33N 49°07' W 123°27'1414.3
2016-Apr-27 00:33N 49°00' W 123°08'1312.7
2016-Apr-26 23:33N 49°05' W 123°26'1918.5
2016-Apr-26 22:33N 49°13' W 123°52'1 1.4
2016-Apr-26 21:33N 49°12' W 123°53'1817.6
2016-Apr-26 20:33N 49°07' W 123°27'1414.3
2016-Apr-26 19:33N 49°00' W 123°08'1110.9
2016-Apr-26 18:33N 49°03' W 123°24'1918.9
2016-Apr-26 17:33N 49°13' W 123°49'3 3.1
2016-Apr-26 16:33N 49°12' W 123°53'1818.0
2016-Apr-26 15:33N 49°06' W 123°27'1413.7
2016-Apr-26 14:33N 49°00' W 123°08'1110.8
2016-Apr-26 13:33N 49°03' W 123°24'1918.9
2016-Apr-26 12:33N 49°13' W 123°49'5 3.8
2016-Apr-26 11:21N 49°10' W 123°53'0 0.0
2016-Apr-26 10:30N 49°10' W 123°53'0 0.0
2016-Apr-26 09:27N 49°10' W 123°53'0 0.0
2016-Apr-26 08:32N 49°10' W 123°53'3 2.8
2016-Apr-26 07:33N 49°12' W 123°53'1919.6
2016-Apr-26 06:33N 49°08' W 123°24'1312.7
2016-Apr-26 05:34N 49°00' W 123°08'1110.8
2016-Apr-26 04:33N 49°03' W 123°24'1919.0
2016-Apr-26 03:33N 49°13' W 123°49'2 1.9
2016-Apr-26 02:33N 49°13' W 123°51'1919.3
2016-Apr-26 01:33N 49°06' W 123°24'1211.7
2016-Apr-26 00:34N 49°00' W 123°08'1514.8
2016-Apr-25 23:33N 49°06' W 123°29'1716.7
2016-Apr-25 22:33N 49°11' W 123°53'2 2.4
2016-Apr-25 21:33N 49°13' W 123°50'1919.5
2016-Apr-25 20:33N 49°05' W 123°23'1110.9
2016-Apr-25 19:33N 49°00' W 123°08'1212.1
2016-Apr-25 18:33N 49°04' W 123°26'1918.5
2016-Apr-25 17:33N 49°13' W 123°50'1 1.3
2016-Apr-25 16:34N 49°13' W 123°52'1817.8
2016-Apr-25 15:33N 49°06' W 123°26'1313.4
2016-Apr-25 14:33N 49°00' W 123°08'1211.9
2016-Apr-25 13:33N 49°04' W 123°25'1818.1
2016-Apr-25 12:33N 49°13' W 123°49'5 3.9
2016-Apr-25 11:24N 49°10' W 123°53'0 0.0
2016-Apr-25 10:17N 49°10' W 123°53'0 0.0
2016-Apr-25 09:29N 49°10' W 123°53'0 0.0
2016-Apr-25 08:28N 49°10' W 123°53'2 2.3
2016-Apr-25 07:33N 49°12' W 123°53'1817.8
2016-Apr-25 06:33N 49°06' W 123°27'1413.7
2016-Apr-25 05:32N 49°00' W 123°08'1616.8
2016-Apr-25 04:33N 49°07' W 123°31'1511.2
2016-Apr-25 03:13N 49°10' W 123°53'5 8.1
2016-Apr-25 02:33N 49°13' W 123°47'1818.2
2016-Apr-25 01:33N 49°05' W 123°22'1010.1
2016-Apr-25 00:32N 49°00' W 123°08'1515.4
2016-Apr-24 23:33N 49°06' W 123°29'1716.6
2016-Apr-24 22:33N 49°12' W 123°53'0 0.3
2016-Apr-24 21:33N 49°12' W 123°53'1918.9
2016-Apr-24 20:33N 49°06' W 123°25'1312.7
2016-Apr-24 19:34N 49°00' W 123°08'9 9.0
2016-Apr-24 18:33N 49°02' W 123°22'2120.6
2016-Apr-24 17:33N 49°13' W 123°48'5 4.2
2016-Apr-24 16:27N 49°10' W 123°53'0 0.0
2016-Apr-24 15:26N 49°10' W 123°53'0 0.0
2016-Apr-24 14:28N 49°10' W 123°53'0 0.0
2016-Apr-24 13:07N 49°10' W 123°53'0 0.0
2016-Apr-24 12:31N 49°10' W 123°53'0 0.0
2016-Apr-24 11:31N 49°10' W 123°53'0 0.0
2016-Apr-24 10:30N 49°10' W 123°53'0 0.0
2016-Apr-24 09:24N 49°10' W 123°53'0 0.0
2016-Apr-24 08:23N 49°10' W 123°53'0 0.0
2016-Apr-24 07:29N 49°10' W 123°53'0 0.0
2016-Apr-24 06:28N 49°10' W 123°53'0 0.0
2016-Apr-24 05:28N 49°10' W 123°53'0 0.0
2016-Apr-24 04:28N 49°10' W 123°53'0 0.0
2016-Apr-24 03:33N 49°10' W 123°53'3 3.3
2016-Apr-24 02:33N 49°13' W 123°51'1817.5
2016-Apr-24 01:33N 49°06' W 123°26'1313.3
2016-Apr-24 00:33N 49°00' W 123°08'1212.6
2016-Apr-23 23:34N 49°04' W 123°26'1717.5
2016-Apr-23 22:34N 49°13' W 123°49'2 2.3
2016-Apr-23 21:34N 49°12' W 123°52'1817.8
2016-Apr-23 20:33N 49°06' W 123°27'1413.2
2016-Apr-23 19:32N 49°00' W 123°08'1212.3
2016-Apr-23 18:34N 49°04' W 123°25'1818.5
2016-Apr-23 17:33N 49°13' W 123°50'1 0.9
2016-Apr-23 16:33N 49°13' W 123°51'1817.6
2016-Apr-23 15:33N 49°06' W 123°26'1313.1
2016-Apr-23 14:33N 49°00' W 123°08'1212.0
2016-Apr-23 13:33N 49°04' W 123°25'1817.8
2016-Apr-23 12:33N 49°13' W 123°49'4 4.4
2016-Apr-23 11:33N 49°10' W 123°53'0 0.0
2016-Apr-23 10:32N 49°10' W 123°53'0 0.0
2016-Apr-23 09:26N 49°10' W 123°53'0 0.0
2016-Apr-23 08:31N 49°10' W 123°53'2 2.3
2016-Apr-23 07:34N 49°12' W 123°53'1817.7
2016-Apr-23 06:33N 49°07' W 123°27'1414.1
2016-Apr-23 05:33N 49°00' W 123°08'1111.1
2016-Apr-23 04:34N 49°03' W 123°24'1918.8
2016-Apr-23 03:33N 49°13' W 123°49'3 3.1
2016-Apr-23 02:34N 49°12' W 123°53'1919.0
2016-Apr-23 01:33N 49°06' W 123°26'1312.9
2016-Apr-23 00:34N 49°00' W 123°08'1413.7
2016-Apr-22 23:33N 49°05' W 123°28'1817.8
2016-Apr-22 22:34N 49°11' W 123°53'2 1.9
2016-Apr-22 21:33N 49°13' W 123°52'1918.8
2016-Apr-22 20:33N 49°05' W 123°25'1212.4
2016-Apr-22 19:33N 49°00' W 123°08'1212.3
2016-Apr-22 18:33N 49°04' W 123°26'1818.1
2016-Apr-22 17:33N 49°13' W 123°50'2 2.2
2016-Apr-22 16:34N 49°12' W 123°53'1817.9
2016-Apr-22 15:34N 49°06' W 123°27'1413.9
2016-Apr-22 14:33N 49°00' W 123°08'1111.3
2016-Apr-22 13:33N 49°03' W 123°24'1918.7
2016-Apr-22 12:33N 49°13' W 123°49'4 4.1
2016-Apr-22 11:32N 49°10' W 123°53'0 0.0
2016-Apr-22 10:32N 49°10' W 123°53'0 0.0
2016-Apr-22 09:28N 49°10' W 123°53'0 0.0
2016-Apr-22 08:31N 49°10' W 123°53'0 0.1
2016-Apr-22 07:33N 49°10' W 123°53'1616.0
2016-Apr-22 06:33N 49°08' W 123°29'1615.8
2016-Apr-22 05:33N 49°00' W 123°08'1110.9
2016-Apr-22 04:33N 49°03' W 123°24'1919.0
2016-Apr-22 03:33N 49°13' W 123°49'  
Track history (hours):
 
Tides and Currents Weather Stations Pressure Air Temp Water Temp Dewpoint Dewpoint Depression Visibility Wind Speed Wind Dir Waves Ship Positions

Coastal Inspiration

Last reported at 2016-May-02 03:33 UTC. Time now 2016-May-02 03:44 UTC.
Position N 49°12' W 123°52'.

Length 160 m; draft 6 m.

Type: Passenger vessel. MMSI: 316011408.

Date/timePositionNaut miles runAvg speedWind from/ knotsBaromVisibWave heightAir tempDewpointWater temp
2016-May-02 03:33N 49°12' W 123°52'0 0.4
2016-May-02 02:33N 49°12' W 123°53'1817.8
2016-May-02 01:33N 49°07' W 123°27'1414.0
2016-May-02 00:33N 49°00' W 123°08'10 9.9
2016-May-01 23:34N 49°03' W 123°23'2120.5
2016-May-01 22:33N 49°13' W 123°50'2 2.3
2016-May-01 21:33N 49°12' W 123°53'1818.1
2016-May-01 20:33N 49°06' W 123°27'1413.9
2016-May-01 19:33N 49°00' W 123°08'1211.6
2016-May-01 18:33N 49°04' W 123°25'1918.8
2016-May-01 17:33N 49°13' W 123°50'4 3.4
2016-May-01 16:25N 49°10' W 123°53'0 0.0
2016-May-01 15:31N 49°10' W 123°53'0 0.0
2016-May-01 14:31N 49°10' W 123°53'0 0.0
2016-May-01 13:33N 49°10' W 123°53'0 0.0
2016-May-01 12:30N 49°10' W 123°53'0 0.0
2016-May-01 11:20N 49°10' W 123°53'0 0.0
2016-May-01 10:29N 49°10' W 123°53'0 0.0
2016-May-01 09:31N 49°10' W 123°53'0 0.0
2016-May-01 08:19N 49°10' W 123°53'0 0.0
2016-May-01 07:12N 49°10' W 123°53'0 0.0
2016-May-01 06:25N 49°10' W 123°53'0 0.0
2016-May-01 05:33N 49°10' W 123°53'0 0.0
2016-May-01 04:32N 49°10' W 123°53'0 0.0
2016-May-01 03:29N 49°10' W 123°53'3 3.7
2016-May-01 02:33N 49°13' W 123°51'1818.0
2016-May-01 01:33N 49°06' W 123°26'1312.8
2016-May-01 00:33N 49°00' W 123°08'1212.3
2016-Apr-30 23:33N 49°04' W 123°26'1817.8
2016-Apr-30 22:33N 49°13' W 123°49'3 2.7
2016-Apr-30 21:33N 49°12' W 123°53'1818.2
2016-Apr-30 20:33N 49°07' W 123°27'1413.8
2016-Apr-30 19:34N 49°00' W 123°08'1211.6
2016-Apr-30 18:33N 49°04' W 123°25'1818.3
2016-Apr-30 17:34N 49°13' W 123°49'2 1.9
2016-Apr-30 16:33N 49°13' W 123°52'1817.5
2016-Apr-30 15:33N 49°06' W 123°27'1413.6
2016-Apr-30 14:33N 49°00' W 123°08'1312.8
2016-Apr-30 13:34N 49°04' W 123°26'1717.5
2016-Apr-30 12:34N 49°13' W 123°50'4 3.8
2016-Apr-30 11:30N 49°10' W 123°53'0 0.0
2016-Apr-30 10:32N 49°10' W 123°53'0 0.0
2016-Apr-30 09:29N 49°10' W 123°53'0 0.0
2016-Apr-30 08:31N 49°10' W 123°53'4 3.8
2016-Apr-30 07:34N 49°13' W 123°50'1919.0
2016-Apr-30 06:33N 49°05' W 123°24'1111.4
2016-Apr-30 05:33N 49°00' W 123°08'1413.7
2016-Apr-30 04:33N 49°05' W 123°28'1817.7
2016-Apr-30 03:33N 49°11' W 123°53'5 5.2
2016-Apr-30 02:34N 49°13' W 123°46'2019.8
2016-Apr-30 01:34N 49°03' W 123°20'8 8.1
2016-Apr-30 00:33N 49°00' W 123°08'1717.3
2016-Apr-29 23:33N 49°07' W 123°32'1414.1
2016-Apr-29 22:33N 49°10' W 123°53'6 5.6
2016-Apr-29 21:33N 49°13' W 123°46'1918.9
2016-Apr-29 20:34N 49°04' W 123°21'9 9.3
2016-Apr-29 19:33N 49°00' W 123°08'1212.3
2016-Apr-29 18:34N 49°04' W 123°26'1919.1
2016-Apr-29 17:33N 49°13' W 123°52'1 0.5
2016-Apr-29 16:34N 49°13' W 123°52'1817.8
2016-Apr-29 15:33N 49°06' W 123°26'1313.3
2016-Apr-29 14:34N 49°00' W 123°08'1212.0
2016-Apr-29 13:33N 49°03' W 123°26'1818.2
2016-Apr-29 12:33N 49°13' W 123°49'30 4.3
2016-Apr-29 05:33N 49°00' W 123°08'1111.1
2016-Apr-29 04:33N 49°03' W 123°24'1919.1
2016-Apr-29 03:33N 49°13' W 123°49'2 1.7
2016-Apr-29 02:34N 49°13' W 123°52'1918.9
2016-Apr-29 01:34N 49°06' W 123°25'1212.3
2016-Apr-29 00:33N 49°00' W 123°08'1414.1
2016-Apr-28 23:33N 49°05' W 123°28'1817.6
2016-Apr-28 22:33N 49°12' W 123°53'0 0.5
2016-Apr-28 21:33N 49°12' W 123°53'1818.3
2016-Apr-28 20:34N 49°06' W 123°26'1313.4
2016-Apr-28 19:34N 49°00' W 123°08'1212.4
2016-Apr-28 18:33N 49°04' W 123°26'1918.7
2016-Apr-28 17:33N 49°12' W 123°52'0 0.3
2016-Apr-28 16:33N 49°13' W 123°51'1818.0
2016-Apr-28 15:33N 49°06' W 123°26'1313.0
2016-Apr-28 14:33N 49°00' W 123°08'1212.2
2016-Apr-28 13:33N 49°04' W 123°26'1818.0
2016-Apr-28 12:33N 49°13' W 123°49'5 4.4
2016-Apr-28 11:29N 49°10' W 123°53'0 0.0
2016-Apr-28 10:32N 49°10' W 123°53'0 0.0
2016-Apr-28 09:28N 49°10' W 123°53'0 0.0
2016-Apr-28 08:31N 49°10' W 123°53'0 0.4
2016-Apr-28 07:33N 49°10' W 123°53'1716.9
2016-Apr-28 06:33N 49°07' W 123°28'1514.7
2016-Apr-28 05:33N 49°00' W 123°08'1211.9
2016-Apr-28 04:33N 49°03' W 123°25'1919.1
2016-Apr-28 03:34N 49°13' W 123°51'1 0.5
2016-Apr-28 02:33N 49°13' W 123°50'2019.6
2016-Apr-28 01:33N 49°05' W 123°23'1110.8
2016-Apr-28 00:33N 49°00' W 123°08'1313.0
2016-Apr-27 23:33N 49°04' W 123°27'1818.5
2016-Apr-27 22:34N 49°12' W 123°52'0 0.4
2016-Apr-27 21:34N 49°12' W 123°53'1918.8
2016-Apr-27 20:33N 49°06' W 123°26'1312.9
2016-Apr-27 19:34N 49°00' W 123°08'1211.9
2016-Apr-27 18:33N 49°04' W 123°25'1918.8
2016-Apr-27 17:33N 49°13' W 123°50'0 0.4
2016-Apr-27 16:33N 49°13' W 123°50'1919.2
2016-Apr-27 15:34N 49°05' W 123°23'1110.9
2016-Apr-27 14:33N 49°00' W 123°08'1313.3
2016-Apr-27 13:33N 49°04' W 123°27'1818.3
2016-Apr-27 12:34N 49°12' W 123°52'3 2.7
2016-Apr-27 11:32N 49°10' W 123°53'0 0.0
2016-Apr-27 10:32N 49°10' W 123°53'0 0.0
2016-Apr-27 09:32N 49°10' W 123°53'0 0.0
2016-Apr-27 08:31N 49°10' W 123°53'1 0.6
2016-Apr-27 07:33N 49°10' W 123°53'1717.1
2016-Apr-27 06:33N 49°07' W 123°28'1514.6
2016-Apr-27 05:33N 49°00' W 123°08'1111.0
2016-Apr-27 04:34N 49°04' W 123°24'1918.9
2016-Apr-27 03:33N 49°13' W 123°49'3 3.2
2016-Apr-27 02:33N 49°11' W 123°53'1717.5
2016-Apr-27 01:33N 49°07' W 123°27'1414.3
2016-Apr-27 00:33N 49°00' W 123°08'1312.7
2016-Apr-26 23:33N 49°05' W 123°26'1918.5
2016-Apr-26 22:33N 49°13' W 123°52'1 1.4
2016-Apr-26 21:33N 49°12' W 123°53'1817.6
2016-Apr-26 20:33N 49°07' W 123°27'1414.3
2016-Apr-26 19:33N 49°00' W 123°08'1110.9
2016-Apr-26 18:33N 49°03' W 123°24'1918.9
2016-Apr-26 17:33N 49°13' W 123°49'3 3.1
2016-Apr-26 16:33N 49°12' W 123°53'1818.0
2016-Apr-26 15:33N 49°06' W 123°27'1413.7
2016-Apr-26 14:33N 49°00' W 123°08'1110.8
2016-Apr-26 13:33N 49°03' W 123°24'1918.9
2016-Apr-26 12:33N 49°13' W 123°49'5 3.8
2016-Apr-26 11:21N 49°10' W 123°53'0 0.0
2016-Apr-26 10:30N 49°10' W 123°53'0 0.0
2016-Apr-26 09:27N 49°10' W 123°53'0 0.0
2016-Apr-26 08:32N 49°10' W 123°53'3 2.8
2016-Apr-26 07:33N 49°12' W 123°53'1919.6
2016-Apr-26 06:33N 49°08' W 123°24'1312.7
2016-Apr-26 05:34N 49°00' W 123°08'1110.8
2016-Apr-26 04:33N 49°03' W 123°24'1919.0
2016-Apr-26 03:33N 49°13' W 123°49'2 1.9
2016-Apr-26 02:33N 49°13' W 123°51'1919.3
2016-Apr-26 01:33N 49°06' W 123°24'1211.7
2016-Apr-26 00:34N 49°00' W 123°08'1514.8
2016-Apr-25 23:33N 49°06' W 123°29'1716.7
2016-Apr-25 22:33N 49°11' W 123°53'2 2.4
2016-Apr-25 21:33N 49°13' W 123°50'1919.5
2016-Apr-25 20:33N 49°05' W 123°23'1110.9
2016-Apr-25 19:33N 49°00' W 123°08'1212.1
2016-Apr-25 18:33N 49°04' W 123°26'1918.5
2016-Apr-25 17:33N 49°13' W 123°50'1 1.3
2016-Apr-25 16:34N 49°13' W 123°52'1817.8
2016-Apr-25 15:33N 49°06' W 123°26'1313.4
2016-Apr-25 14:33N 49°00' W 123°08'1211.9
2016-Apr-25 13:33N 49°04' W 123°25'1818.1
2016-Apr-25 12:33N 49°13' W 123°49'5 3.9
2016-Apr-25 11:24N 49°10' W 123°53'0 0.0
2016-Apr-25 10:17N 49°10' W 123°53'0 0.0
2016-Apr-25 09:29N 49°10' W 123°53'0 0.0
2016-Apr-25 08:28N 49°10' W 123°53'2 2.3
2016-Apr-25 07:33N 49°12' W 123°53'1817.8
2016-Apr-25 06:33N 49°06' W 123°27'1413.7
2016-Apr-25 05:32N 49°00' W 123°08'1616.8
2016-Apr-25 04:33N 49°07' W 123°31'1511.2
2016-Apr-25 03:13N 49°10' W 123°53'5 8.1
2016-Apr-25 02:33N 49°13' W 123°47'1818.2
2016-Apr-25 01:33N 49°05' W 123°22'1010.1
2016-Apr-25 00:32N 49°00' W 123°08'1515.4
2016-Apr-24 23:33N 49°06' W 123°29'1716.6
2016-Apr-24 22:33N 49°12' W 123°53'0 0.3
2016-Apr-24 21:33N 49°12' W 123°53'1918.9
2016-Apr-24 20:33N 49°06' W 123°25'1312.7
2016-Apr-24 19:34N 49°00' W 123°08'9 9.0
2016-Apr-24 18:33N 49°02' W 123°22'2120.6
2016-Apr-24 17:33N 49°13' W 123°48'5 4.2
2016-Apr-24 16:27N 49°10' W 123°53'0 0.0
2016-Apr-24 15:26N 49°10' W 123°53'0 0.0
2016-Apr-24 14:28N 49°10' W 123°53'0 0.0
2016-Apr-24 13:07N 49°10' W 123°53'0 0.0
2016-Apr-24 12:31N 49°10' W 123°53'0 0.0
2016-Apr-24 11:31N 49°10' W 123°53'0 0.0
2016-Apr-24 10:30N 49°10' W 123°53'0 0.0
2016-Apr-24 09:24N 49°10' W 123°53'0 0.0
2016-Apr-24 08:23N 49°10' W 123°53'0 0.0
2016-Apr-24 07:29N 49°10' W 123°53'0 0.0
2016-Apr-24 06:28N 49°10' W 123°53'0 0.0
2016-Apr-24 05:28N 49°10' W 123°53'0 0.0
2016-Apr-24 04:28N 49°10' W 123°53'0 0.0
2016-Apr-24 03:33N 49°10' W 123°53'3 3.3
2016-Apr-24 02:33N 49°13' W 123°51'1817.5
2016-Apr-24 01:33N 49°06' W 123°26'1313.3
2016-Apr-24 00:33N 49°00' W 123°08'1212.6
2016-Apr-23 23:34N 49°04' W 123°26'1717.5
2016-Apr-23 22:34N 49°13' W 123°49'2 2.3
2016-Apr-23 21:34N 49°12' W 123°52'1817.8
2016-Apr-23 20:33N 49°06' W 123°27'1413.2
2016-Apr-23 19:32N 49°00' W 123°08'1212.3
2016-Apr-23 18:34N 49°04' W 123°25'1818.5
2016-Apr-23 17:33N 49°13' W 123°50'1 0.9
2016-Apr-23 16:33N 49°13' W 123°51'1817.6
2016-Apr-23 15:33N 49°06' W 123°26'1313.1
2016-Apr-23 14:33N 49°00' W 123°08'1212.0
2016-Apr-23 13:33N 49°04' W 123°25'1817.8
2016-Apr-23 12:33N 49°13' W 123°49'4 4.4
2016-Apr-23 11:33N 49°10' W 123°53'0 0.0
2016-Apr-23 10:32N 49°10' W 123°53'0 0.0
2016-Apr-23 09:26N 49°10' W 123°53'0 0.0
2016-Apr-23 08:31N 49°10' W 123°53'2 2.3
2016-Apr-23 07:34N 49°12' W 123°53'1817.7
2016-Apr-23 06:33N 49°07' W 123°27'1414.1
2016-Apr-23 05:33N 49°00' W 123°08'1111.1
2016-Apr-23 04:34N 49°03' W 123°24'1918.8
2016-Apr-23 03:33N 49°13' W 123°49'3 3.1
2016-Apr-23 02:34N 49°12' W 123°53'1919.0
2016-Apr-23 01:33N 49°06' W 123°26'1312.9
2016-Apr-23 00:34N 49°00' W 123°08'1413.7
2016-Apr-22 23:33N 49°05' W 123°28'1817.8
2016-Apr-22 22:34N 49°11' W 123°53'2 1.9
2016-Apr-22 21:33N 49°13' W 123°52'1918.8
2016-Apr-22 20:33N 49°05' W 123°25'1212.4
2016-Apr-22 19:33N 49°00' W 123°08'1212.3
2016-Apr-22 18:33N 49°04' W 123°26'1818.1
2016-Apr-22 17:33N 49°13' W 123°50'2 2.2
2016-Apr-22 16:34N 49°12' W 123°53'1817.9
2016-Apr-22 15:34N 49°06' W 123°27'1413.9
2016-Apr-22 14:33N 49°00' W 123°08'1111.3
2016-Apr-22 13:33N 49°03' W 123°24'1918.7
2016-Apr-22 12:33N 49°13' W 123°49'4 4.1
2016-Apr-22 11:32N 49°10' W 123°53'0 0.0
2016-Apr-22 10:32N 49°10' W 123°53'0 0.0
2016-Apr-22 09:28N 49°10' W 123°53'0 0.0
2016-Apr-22 08:31N 49°10' W 123°53'0 0.1
2016-Apr-22 07:33N 49°10' W 123°53'1616.0
2016-Apr-22 06:33N 49°08' W 123°29'1615.8
2016-Apr-22 05:33N 49°00' W 123°08'1110.9
2016-Apr-22 04:33N 49°03' W 123°24'1919.0
2016-Apr-22 03:33N 49°13' W 123°49'  

Dump ship's entire track history